sensor_id;sensor_type;location;lat;lon;timestamp;temperature;humidity
67064;SHT30;58476;48.072;11.970;2023-05-15T00:02:06;21.65;56.95
67064;SHT30;58476;48.072;11.970;2023-05-15T00:04:31;21.65;57.07
67064;SHT30;58476;48.072;11.970;2023-05-15T00:06:56;21.69;56.86
67064;SHT30;58476;48.072;11.970;2023-05-15T00:09:22;21.69;56.93
67064;SHT30;58476;48.072;11.970;2023-05-15T00:11:47;21.68;56.84
67064;SHT30;58476;48.072;11.970;2023-05-15T00:14:13;21.71;56.81
67064;SHT30;58476;48.072;11.970;2023-05-15T00:16:38;21.68;56.91
67064;SHT30;58476;48.072;11.970;2023-05-15T00:19:03;21.68;56.81
67064;SHT30;58476;48.072;11.970;2023-05-15T00:21:29;21.72;56.82
67064;SHT30;58476;48.072;11.970;2023-05-15T00:23:54;21.71;56.80
67064;SHT30;58476;48.072;11.970;2023-05-15T00:26:22;21.72;56.77
67064;SHT30;58476;48.072;11.970;2023-05-15T00:28:47;21.71;56.75
67064;SHT30;58476;48.072;11.970;2023-05-15T00:31:13;21.72;56.72
67064;SHT30;58476;48.072;11.970;2023-05-15T00:33:38;21.72;56.67
67064;SHT30;58476;48.072;11.970;2023-05-15T00:36:04;21.72;56.75
67064;SHT30;58476;48.072;11.970;2023-05-15T00:38:29;21.71;56.75
67064;SHT30;58476;48.072;11.970;2023-05-15T00:40:55;21.68;56.78
67064;SHT30;58476;48.072;11.970;2023-05-15T00:43:21;21.66;56.83
67064;SHT30;58476;48.072;11.970;2023-05-15T00:45:47;21.63;56.87
67064;SHT30;58476;48.072;11.970;2023-05-15T00:48:12;21.65;56.87
67064;SHT30;58476;48.072;11.970;2023-05-15T00:50:38;21.59;56.88
67064;SHT30;58476;48.072;11.970;2023-05-15T00:53:04;21.61;56.90
67064;SHT30;58476;48.072;11.970;2023-05-15T00:55:30;21.59;56.92
67064;SHT30;58476;48.072;11.970;2023-05-15T00:57:56;21.58;56.97
67064;SHT30;58476;48.072;11.970;2023-05-15T01:00:23;21.58;56.97
67064;SHT30;58476;48.072;11.970;2023-05-15T01:02:49;21.55;57.02
67064;SHT30;58476;48.072;11.970;2023-05-15T01:05:14;21.54;56.98
67064;SHT30;58476;48.072;11.970;2023-05-15T01:07:47;21.52;57.00
67064;SHT30;58476;48.072;11.970;2023-05-15T01:10:14;21.52;57.00
67064;SHT30;58476;48.072;11.970;2023-05-15T01:12:40;21.51;56.88
67064;SHT30;58476;48.072;11.970;2023-05-15T01:15:07;21.49;56.92
67064;SHT30;58476;48.072;11.970;2023-05-15T01:17:32;21.47;56.97
67064;SHT30;58476;48.072;11.970;2023-05-15T01:19:59;21.48;57.01
67064;SHT30;58476;48.072;11.970;2023-05-15T01:28:17;21.44;56.86
67064;SHT30;58476;48.072;11.970;2023-05-15T01:30:46;21.42;56.86
67064;SHT30;58476;48.072;11.970;2023-05-15T01:33:23;21.42;56.93
67064;SHT30;58476;48.072;11.970;2023-05-15T01:35:57;21.41;56.84
67064;SHT30;58476;48.072;11.970;2023-05-15T01:38:36;21.38;56.92
67064;SHT30;58476;48.072;11.970;2023-05-15T01:43:37;21.38;56.99
67064;SHT30;58476;48.072;11.970;2023-05-15T01:46:04;21.37;57.15
67064;SHT30;58476;48.072;11.970;2023-05-15T01:48:32;21.37;57.14
67064;SHT30;58476;48.072;11.970;2023-05-15T01:51:00;21.35;57.09
67064;SHT30;58476;48.072;11.970;2023-05-15T01:53:29;21.37;57.06
67064;SHT30;58476;48.072;11.970;2023-05-15T01:55:54;21.34;57.08
67064;SHT30;58476;48.072;11.970;2023-05-15T01:58:21;21.32;57.15
67064;SHT30;58476;48.072;11.970;2023-05-15T02:00:49;21.31;57.16
67064;SHT30;58476;48.072;11.970;2023-05-15T02:03:15;21.30;57.37
67064;SHT30;58476;48.072;11.970;2023-05-15T02:05:40;21.32;57.70
67064;SHT30;58476;48.072;11.970;2023-05-15T02:08:06;21.31;57.59
67064;SHT30;58476;48.072;11.970;2023-05-15T02:10:32;21.31;57.32
67064;SHT30;58476;48.072;11.970;2023-05-15T02:12:58;21.35;57.19
67064;SHT30;58476;48.072;11.970;2023-05-15T02:15:26;21.35;57.47
67064;SHT30;58476;48.072;11.970;2023-05-15T02:17:52;21.37;57.14
67064;SHT30;58476;48.072;11.970;2023-05-15T02:20:18;21.41;57.01
67064;SHT30;58476;48.072;11.970;2023-05-15T02:22:43;21.37;57.02
67064;SHT30;58476;48.072;11.970;2023-05-15T02:25:08;21.41;57.03
67064;SHT30;58476;48.072;11.970;2023-05-15T02:27:46;21.42;56.91
67064;SHT30;58476;48.072;11.970;2023-05-15T02:30:27;21.44;56.85
67064;SHT30;58476;48.072;11.970;2023-05-15T02:38:07;21.48;56.64
67064;SHT30;58476;48.072;11.970;2023-05-15T02:40:35;21.47;56.63
67064;SHT30;58476;48.072;11.970;2023-05-15T02:43:04;21.48;56.50
67064;SHT30;58476;48.072;11.970;2023-05-15T02:45:30;21.48;56.43
67064;SHT30;58476;48.072;11.970;2023-05-15T02:47:56;21.48;56.40
67064;SHT30;58476;48.072;11.970;2023-05-15T02:50:23;21.49;56.40
67064;SHT30;58476;48.072;11.970;2023-05-15T02:52:49;21.49;56.43
67064;SHT30;58476;48.072;11.970;2023-05-15T02:55:15;21.49;56.68
67064;SHT30;58476;48.072;11.970;2023-05-15T02:57:40;21.51;56.75
67064;SHT30;58476;48.072;11.970;2023-05-15T03:00:06;21.51;56.64
67064;SHT30;58476;48.072;11.970;2023-05-15T03:02:31;21.48;56.60
67064;SHT30;58476;48.072;11.970;2023-05-15T03:04:57;21.48;56.88
67064;SHT30;58476;48.072;11.970;2023-05-15T03:07:22;21.47;56.43
67064;SHT30;58476;48.072;11.970;2023-05-15T03:09:47;21.44;56.32
67064;SHT30;58476;48.072;11.970;2023-05-15T03:12:13;21.44;56.42
67064;SHT30;58476;48.072;11.970;2023-05-15T03:14:38;21.41;56.37
67064;SHT30;58476;48.072;11.970;2023-05-15T03:17:03;21.39;56.32
67064;SHT30;58476;48.072;11.970;2023-05-15T03:19:29;21.41;56.23
67064;SHT30;58476;48.072;11.970;2023-05-15T03:21:54;21.39;56.20
67064;SHT30;58476;48.072;11.970;2023-05-15T03:24:20;21.38;56.21
67064;SHT30;58476;48.072;11.970;2023-05-15T03:26:45;21.35;56.23
67064;SHT30;58476;48.072;11.970;2023-05-15T03:29:11;21.35;56.29
67064;SHT30;58476;48.072;11.970;2023-05-15T03:31:37;21.32;56.30
67064;SHT30;58476;48.072;11.970;2023-05-15T03:34:02;21.32;56.36
67064;SHT30;58476;48.072;11.970;2023-05-15T03:36:27;21.32;56.42
67064;SHT30;58476;48.072;11.970;2023-05-15T03:38:53;21.30;56.39
67064;SHT30;58476;48.072;11.970;2023-05-15T03:41:18;21.30;56.44
67064;SHT30;58476;48.072;11.970;2023-05-15T03:43:43;21.28;56.48
67064;SHT30;58476;48.072;11.970;2023-05-15T03:46:10;21.24;56.48
67064;SHT30;58476;48.072;11.970;2023-05-15T03:48:38;21.23;56.53
67064;SHT30;58476;48.072;11.970;2023-05-15T03:51:04;21.24;56.54
67064;SHT30;58476;48.072;11.970;2023-05-15T03:53:29;21.23;56.57
67064;SHT30;58476;48.072;11.970;2023-05-15T03:55:55;21.24;56.58
67064;SHT30;58476;48.072;11.970;2023-05-15T03:58:21;21.24;56.57
67064;SHT30;58476;48.072;11.970;2023-05-15T04:00:48;21.20;56.59
67064;SHT30;58476;48.072;11.970;2023-05-15T04:03:13;21.24;56.78
67064;SHT30;58476;48.072;11.970;2023-05-15T04:05:38;21.24;57.12
67064;SHT30;58476;48.072;11.970;2023-05-15T04:08:04;21.25;56.96
67064;SHT30;58476;48.072;11.970;2023-05-15T04:10:29;21.25;57.14
67064;SHT30;58476;48.072;11.970;2023-05-15T04:12:55;21.25;57.12
67064;SHT30;58476;48.072;11.970;2023-05-15T04:15:22;21.25;57.18
67064;SHT30;58476;48.072;11.970;2023-05-15T04:17:49;21.31;56.99
67064;SHT30;58476;48.072;11.970;2023-05-15T04:20:17;21.32;57.53
67064;SHT30;58476;48.072;11.970;2023-05-15T04:22:43;21.34;57.17
67064;SHT30;58476;48.072;11.970;2023-05-15T04:25:10;21.37;57.29
67064;SHT30;58476;48.072;11.970;2023-05-15T04:27:36;21.39;57.18
67064;SHT30;58476;48.072;11.970;2023-05-15T04:30:03;21.41;57.23
67064;SHT30;58476;48.072;11.970;2023-05-15T04:32:29;21.44;57.18
67064;SHT30;58476;48.072;11.970;2023-05-15T04:34:54;21.49;57.15
67064;SHT30;58476;48.072;11.970;2023-05-15T04:37:20;21.52;57.12
67064;SHT30;58476;48.072;11.970;2023-05-15T04:39:45;21.52;57.14
67064;SHT30;58476;48.072;11.970;2023-05-15T04:42:11;21.54;56.98
67064;SHT30;58476;48.072;11.970;2023-05-15T04:44:36;21.52;56.85
67064;SHT30;58476;48.072;11.970;2023-05-15T04:47:01;21.55;56.75
67064;SHT30;58476;48.072;11.970;2023-05-15T04:49:26;21.58;57.06
67064;SHT30;58476;48.072;11.970;2023-05-15T04:51:52;21.59;57.19
67064;SHT30;58476;48.072;11.970;2023-05-15T04:54:17;21.61;57.27
67064;SHT30;58476;48.072;11.970;2023-05-15T04:56:44;21.62;57.11
67064;SHT30;58476;48.072;11.970;2023-05-15T04:59:09;21.63;57.20
67064;SHT30;58476;48.072;11.970;2023-05-15T05:01:35;21.65;57.14
67064;SHT30;58476;48.072;11.970;2023-05-15T05:04:00;21.65;57.16
67064;SHT30;58476;48.072;11.970;2023-05-15T05:06:25;21.69;57.16
67064;SHT30;58476;48.072;11.970;2023-05-15T05:08:51;21.69;57.00
67064;SHT30;58476;48.072;11.970;2023-05-15T05:11:16;21.68;56.96
67064;SHT30;58476;48.072;11.970;2023-05-15T05:13:41;21.74;57.08
67064;SHT30;58476;48.072;11.970;2023-05-15T05:16:07;21.69;57.08
67064;SHT30;58476;48.072;11.970;2023-05-15T05:18:32;21.65;57.22
67064;SHT30;58476;48.072;11.970;2023-05-15T05:20:59;21.62;57.11
67064;SHT30;58476;48.072;11.970;2023-05-15T05:23:24;21.58;56.83
67064;SHT30;58476;48.072;11.970;2023-05-15T05:25:49;21.54;56.63
67064;SHT30;58476;48.072;11.970;2023-05-15T05:28:15;21.49;56.86
67064;SHT30;58476;48.072;11.970;2023-05-15T05:30:44;21.51;57.14
67064;SHT30;58476;48.072;11.970;2023-05-15T05:33:09;21.47;57.13
67064;SHT30;58476;48.072;11.970;2023-05-15T05:35:34;21.45;57.17
67064;SHT30;58476;48.072;11.970;2023-05-15T05:38:00;21.42;56.97
67064;SHT30;58476;48.072;11.970;2023-05-15T05:40:25;21.41;56.99
67064;SHT30;58476;48.072;11.970;2023-05-15T05:42:50;21.39;57.08
67064;SHT30;58476;48.072;11.970;2023-05-15T05:45:16;21.38;57.07
67064;SHT30;58476;48.072;11.970;2023-05-15T05:47:41;21.34;57.18
67064;SHT30;58476;48.072;11.970;2023-05-15T05:50:07;21.32;57.15
67064;SHT30;58476;48.072;11.970;2023-05-15T05:52:32;21.34;57.09
67064;SHT30;58476;48.072;11.970;2023-05-15T05:54:57;21.30;57.74
67064;SHT30;58476;48.072;11.970;2023-05-15T05:57:23;21.27;57.61
67064;SHT30;58476;48.072;11.970;2023-05-15T05:59:48;21.27;57.49
67064;SHT30;58476;48.072;11.970;2023-05-15T06:02:14;21.25;57.59
67064;SHT30;58476;48.072;11.970;2023-05-15T06:04:39;21.24;57.81
67064;SHT30;58476;48.072;11.970;2023-05-15T06:07:05;21.24;57.77
67064;SHT30;58476;48.072;11.970;2023-05-15T06:09:30;21.25;57.84
67064;SHT30;58476;48.072;11.970;2023-05-15T06:11:55;21.20;57.89
67064;SHT30;58476;48.072;11.970;2023-05-15T06:14:20;21.20;57.91
67064;SHT30;58476;48.072;11.970;2023-05-15T06:16:46;21.20;57.85
67064;SHT30;58476;48.072;11.970;2023-05-15T06:19:11;21.18;57.91
67064;SHT30;58476;48.072;11.970;2023-05-15T06:21:36;21.20;57.91
67064;SHT30;58476;48.072;11.970;2023-05-15T06:24:02;21.18;57.95
67064;SHT30;58476;48.072;11.970;2023-05-15T06:26:27;21.18;57.96
67064;SHT30;58476;48.072;11.970;2023-05-15T06:28:53;21.15;57.98
67064;SHT30;58476;48.072;11.970;2023-05-15T06:31:19;21.18;58.00
67064;SHT30;58476;48.072;11.970;2023-05-15T06:33:44;21.17;58.01
67064;SHT30;58476;48.072;11.970;2023-05-15T06:36:09;21.12;58.05
67064;SHT30;58476;48.072;11.970;2023-05-15T06:38:35;21.14;58.21
67064;SHT30;58476;48.072;11.970;2023-05-15T06:41:00;21.12;58.18
67064;SHT30;58476;48.072;11.970;2023-05-15T06:43:25;21.12;58.45
67064;SHT30;58476;48.072;11.970;2023-05-15T06:45:51;21.15;58.38
67064;SHT30;58476;48.072;11.970;2023-05-15T06:48:16;21.20;61.28
67064;SHT30;58476;48.072;11.970;2023-05-15T06:50:41;21.18;59.43
67064;SHT30;58476;48.072;11.970;2023-05-15T06:53:07;21.20;58.77
67064;SHT30;58476;48.072;11.970;2023-05-15T06:55:32;21.23;58.72
67064;SHT30;58476;48.072;11.970;2023-05-15T06:57:57;21.21;58.65
67064;SHT30;58476;48.072;11.970;2023-05-15T07:00:23;21.25;58.59
67064;SHT30;58476;48.072;11.970;2023-05-15T07:02:48;21.27;58.46
67064;SHT30;58476;48.072;11.970;2023-05-15T07:05:13;21.31;58.41
67064;SHT30;58476;48.072;11.970;2023-05-15T07:07:39;21.31;58.47
67064;SHT30;58476;48.072;11.970;2023-05-15T07:10:04;21.32;58.46
67064;SHT30;58476;48.072;11.970;2023-05-15T07:12:30;21.34;58.42
67064;SHT30;58476;48.072;11.970;2023-05-15T07:14:55;21.35;58.39
67064;SHT30;58476;48.072;11.970;2023-05-15T07:17:21;21.38;58.33
67064;SHT30;58476;48.072;11.970;2023-05-15T07:19:46;21.39;58.32
67064;SHT30;58476;48.072;11.970;2023-05-15T07:22:11;21.41;58.29
67064;SHT30;58476;48.072;11.970;2023-05-15T07:24:37;21.41;58.19
67064;SHT30;58476;48.072;11.970;2023-05-15T07:27:02;21.39;58.23
67064;SHT30;58476;48.072;11.970;2023-05-15T07:29:27;21.39;58.22
67064;SHT30;58476;48.072;11.970;2023-05-15T07:31:53;21.41;58.21
67064;SHT30;58476;48.072;11.970;2023-05-15T07:34:18;21.42;58.01
67064;SHT30;58476;48.072;11.970;2023-05-15T07:36:43;21.44;58.03
67064;SHT30;58476;48.072;11.970;2023-05-15T07:39:09;21.41;58.15
67064;SHT30;58476;48.072;11.970;2023-05-15T07:41:34;21.41;58.04
67064;SHT30;58476;48.072;11.970;2023-05-15T07:43:59;21.39;57.68
67064;SHT30;58476;48.072;11.970;2023-05-15T07:46:25;21.39;57.73
67064;SHT30;58476;48.072;11.970;2023-05-15T07:48:50;21.39;57.69
67064;SHT30;58476;48.072;11.970;2023-05-15T07:51:15;21.37;57.87
67064;SHT30;58476;48.072;11.970;2023-05-15T07:53:41;21.35;57.85
67064;SHT30;58476;48.072;11.970;2023-05-15T07:56:06;21.34;58.11
67064;SHT30;58476;48.072;11.970;2023-05-15T07:58:31;21.32;58.31
67064;SHT30;58476;48.072;11.970;2023-05-15T08:00:57;21.31;58.29
67064;SHT30;58476;48.072;11.970;2023-05-15T08:03:22;21.30;58.50
67064;SHT30;58476;48.072;11.970;2023-05-15T08:05:47;21.28;58.55
67064;SHT30;58476;48.072;11.970;2023-05-15T08:08:13;21.28;58.57
67064;SHT30;58476;48.072;11.970;2023-05-15T08:10:38;21.25;58.58
67064;SHT30;58476;48.072;11.970;2023-05-15T08:13:03;21.27;58.73
67064;SHT30;58476;48.072;11.970;2023-05-15T08:15:29;21.24;58.81
67064;SHT30;58476;48.072;11.970;2023-05-15T08:17:54;21.24;58.82
67064;SHT30;58476;48.072;11.970;2023-05-15T08:20:19;21.24;58.84
67064;SHT30;58476;48.072;11.970;2023-05-15T08:22:45;21.23;58.81
67064;SHT30;58476;48.072;11.970;2023-05-15T08:25:10;21.21;58.79
67064;SHT30;58476;48.072;11.970;2023-05-15T08:27:36;21.24;59.26
67064;SHT30;58476;48.072;11.970;2023-05-15T08:30:01;21.21;59.32
67064;SHT30;58476;48.072;11.970;2023-05-15T08:32:26;21.20;59.28
67064;SHT30;58476;48.072;11.970;2023-05-15T08:34:52;21.23;58.94
67064;SHT30;58476;48.072;11.970;2023-05-15T08:37:17;21.18;59.30
67064;SHT30;58476;48.072;11.970;2023-05-15T08:39:43;21.18;59.36
67064;SHT30;58476;48.072;11.970;2023-05-15T08:42:15;21.18;59.10
67064;SHT30;58476;48.072;11.970;2023-05-15T08:44:44;21.23;59.22
67064;SHT30;58476;48.072;11.970;2023-05-15T08:47:10;21.27;59.21
67064;SHT30;58476;48.072;11.970;2023-05-15T08:49:59;21.21;59.35
67064;SHT30;58476;48.072;11.970;2023-05-15T08:52:26;21.21;59.45
67064;SHT30;58476;48.072;11.970;2023-05-15T08:54:53;21.20;59.21
67064;SHT30;58476;48.072;11.970;2023-05-15T08:57:18;21.23;59.19
67064;SHT30;58476;48.072;11.970;2023-05-15T08:59:45;21.24;59.30
67064;SHT30;58476;48.072;11.970;2023-05-15T09:02:10;21.25;59.25
67064;SHT30;58476;48.072;11.970;2023-05-15T09:04:36;21.27;59.16
67064;SHT30;58476;48.072;11.970;2023-05-15T09:07:02;21.30;58.98
67064;SHT30;58476;48.072;11.970;2023-05-15T09:09:29;21.32;58.82
67064;SHT30;58476;48.072;11.970;2023-05-15T09:11:56;21.34;58.70
67064;SHT30;58476;48.072;11.970;2023-05-15T09:14:23;21.38;58.62
67064;SHT30;58476;48.072;11.970;2023-05-15T09:16:48;21.37;58.68
67064;SHT30;58476;48.072;11.970;2023-05-15T09:19:14;21.35;58.77
67064;SHT30;58476;48.072;11.970;2023-05-15T09:21:39;21.38;58.70
67064;SHT30;58476;48.072;11.970;2023-05-15T09:26:39;21.39;58.35
67064;SHT30;58476;48.072;11.970;2023-05-15T09:29:05;21.41;58.58
67064;SHT30;58476;48.072;11.970;2023-05-15T09:31:30;21.45;58.84
67064;SHT30;58476;48.072;11.970;2023-05-15T09:34:00;21.48;58.32
67064;SHT30;58476;48.072;11.970;2023-05-15T09:36:25;21.51;58.56
67064;SHT30;58476;48.072;11.970;2023-05-15T09:38:59;21.55;58.83
67064;SHT30;58476;48.072;11.970;2023-05-15T09:41:26;21.56;58.39
67064;SHT30;58476;48.072;11.970;2023-05-15T09:43:52;21.62;58.37
67064;SHT30;58476;48.072;11.970;2023-05-15T09:46:17;21.61;58.36
67064;SHT30;58476;48.072;11.970;2023-05-15T09:48:43;21.61;58.32
67064;SHT30;58476;48.072;11.970;2023-05-15T09:51:16;21.61;58.34
67064;SHT30;58476;48.072;11.970;2023-05-15T09:53:42;21.58;58.50
67064;SHT30;58476;48.072;11.970;2023-05-15T09:56:12;21.56;58.50
67064;SHT30;58476;48.072;11.970;2023-05-15T09:58:51;21.58;58.39
67064;SHT30;58476;48.072;11.970;2023-05-15T10:01:18;21.56;58.53
67064;SHT30;58476;48.072;11.970;2023-05-15T10:03:55;21.59;58.54
67064;SHT30;58476;48.072;11.970;2023-05-15T10:06:21;21.59;58.49
67064;SHT30;58476;48.072;11.970;2023-05-15T10:08:55;21.62;58.50
67064;SHT30;58476;48.072;11.970;2023-05-15T10:11:21;21.61;58.62
67064;SHT30;58476;48.072;11.970;2023-05-15T10:13:48;21.59;58.51
67064;SHT30;58476;48.072;11.970;2023-05-15T10:16:13;21.58;58.59
67064;SHT30;58476;48.072;11.970;2023-05-15T10:18:40;21.56;58.62
67064;SHT30;58476;48.072;11.970;2023-05-15T10:21:07;21.58;58.70
67064;SHT30;58476;48.072;11.970;2023-05-15T10:23:34;21.56;58.70
67064;SHT30;58476;48.072;11.970;2023-05-15T10:26:03;21.56;58.81
67064;SHT30;58476;48.072;11.970;2023-05-15T10:28:30;21.52;58.70
67064;SHT30;58476;48.072;11.970;2023-05-15T10:30:59;21.58;58.70
67064;SHT30;58476;48.072;11.970;2023-05-15T10:33:26;21.58;58.51
67064;SHT30;58476;48.072;11.970;2023-05-15T10:35:52;21.59;58.68
67064;SHT30;58476;48.072;11.970;2023-05-15T10:38:18;21.56;58.44
67064;SHT30;58476;48.072;11.970;2023-05-15T10:40:44;21.56;58.47
67064;SHT30;58476;48.072;11.970;2023-05-15T10:43:11;21.52;58.52
67064;SHT30;58476;48.072;11.970;2023-05-15T10:45:38;21.54;58.74
67064;SHT30;58476;48.072;11.970;2023-05-15T10:48:04;21.52;58.59
67064;SHT30;58476;48.072;11.970;2023-05-15T10:50:30;21.52;58.71
67064;SHT30;58476;48.072;11.970;2023-05-15T10:52:56;21.52;58.81
67064;SHT30;58476;48.072;11.970;2023-05-15T10:55:22;21.51;58.63
67064;SHT30;58476;48.072;11.970;2023-05-15T10:57:47;21.51;58.73
67064;SHT30;58476;48.072;11.970;2023-05-15T11:02:48;21.49;58.66
67064;SHT30;58476;48.072;11.970;2023-05-15T11:05:13;21.51;58.70
67064;SHT30;58476;48.072;11.970;2023-05-15T11:07:39;21.51;58.75
67064;SHT30;58476;48.072;11.970;2023-05-15T11:13:00;21.54;58.50
67064;SHT30;58476;48.072;11.970;2023-05-15T11:15:25;21.56;58.39
67064;SHT30;58476;48.072;11.970;2023-05-15T11:18:01;21.61;58.28
67064;SHT30;58476;48.072;11.970;2023-05-15T11:23:04;21.72;58.20
67064;SHT30;58476;48.072;11.970;2023-05-15T11:25:30;21.76;57.91
67064;SHT30;58476;48.072;11.970;2023-05-15T11:27:56;21.82;57.98
67064;SHT30;58476;48.072;11.970;2023-05-15T11:30:22;21.83;57.87
67064;SHT30;58476;48.072;11.970;2023-05-15T11:32:59;21.81;57.89
67064;SHT30;58476;48.072;11.970;2023-05-15T11:35:28;21.79;57.90
67064;SHT30;58476;48.072;11.970;2023-05-15T11:37:56;21.81;57.86
67064;SHT30;58476;48.072;11.970;2023-05-15T11:40:29;21.88;58.03
67064;SHT30;58476;48.072;11.970;2023-05-15T11:45:36;21.89;58.03
67064;SHT30;58476;48.072;11.970;2023-05-15T11:48:04;21.90;58.14
67064;SHT30;58476;48.072;11.970;2023-05-15T11:50:31;21.95;58.10
67064;SHT30;58476;48.072;11.970;2023-05-15T11:52:56;21.96;58.24
67064;SHT30;58476;48.072;11.970;2023-05-15T11:55:22;22.00;58.54
67064;SHT30;58476;48.072;11.970;2023-05-15T11:57:49;22.05;58.49
67064;SHT30;58476;48.072;11.970;2023-05-15T12:00:14;22.07;58.16
67064;SHT30;58476;48.072;11.970;2023-05-15T12:02:40;22.09;58.37
67064;SHT30;58476;48.072;11.970;2023-05-15T12:05:06;22.12;57.83
67064;SHT30;58476;48.072;11.970;2023-05-15T12:07:35;22.14;57.83
67064;SHT30;58476;48.072;11.970;2023-05-15T12:10:01;22.17;57.79
67064;SHT30;58476;48.072;11.970;2023-05-15T12:12:27;22.10;56.99
67064;SHT30;58476;48.072;11.970;2023-05-15T12:14:56;22.09;57.45
67064;SHT30;58476;48.072;11.970;2023-05-15T12:17:23;22.09;57.26
67064;SHT30;58476;48.072;11.970;2023-05-15T12:19:49;22.05;56.98
67064;SHT30;58476;48.072;11.970;2023-05-15T12:22:15;22.00;57.15
67064;SHT30;58476;48.072;11.970;2023-05-15T12:24:41;21.96;57.41
67064;SHT30;58476;48.072;11.970;2023-05-15T12:27:07;21.95;57.34
67064;SHT30;58476;48.072;11.970;2023-05-15T12:29:33;21.97;57.59
67064;SHT30;58476;48.072;11.970;2023-05-15T12:31:58;22.00;57.77
67064;SHT30;58476;48.072;11.970;2023-05-15T12:34:24;22.03;57.81
67064;SHT30;58476;48.072;11.970;2023-05-15T12:36:50;22.10;57.75
67064;SHT30;58476;48.072;11.970;2023-05-15T12:39:15;22.12;57.59
67064;SHT30;58476;48.072;11.970;2023-05-15T12:41:41;22.13;57.63
67064;SHT30;58476;48.072;11.970;2023-05-15T12:44:15;22.16;57.67
67064;SHT30;58476;48.072;11.970;2023-05-15T12:46:41;22.18;57.57
67064;SHT30;58476;48.072;11.970;2023-05-15T12:49:07;22.18;57.40
67064;SHT30;58476;48.072;11.970;2023-05-15T12:51:32;22.16;57.28
67064;SHT30;58476;48.072;11.970;2023-05-15T12:53:57;22.20;57.24
67064;SHT30;58476;48.072;11.970;2023-05-15T12:56:23;22.26;57.17
67064;SHT30;58476;48.072;11.970;2023-05-15T12:58:49;22.27;57.05
67064;SHT30;58476;48.072;11.970;2023-05-15T13:01:15;22.24;57.20
67064;SHT30;58476;48.072;11.970;2023-05-15T13:03:41;22.23;57.21
67064;SHT30;58476;48.072;11.970;2023-05-15T13:06:08;22.21;57.17
67064;SHT30;58476;48.072;11.970;2023-05-15T13:08:38;22.18;57.13
67064;SHT30;58476;48.072;11.970;2023-05-15T13:11:04;22.20;56.92
67064;SHT30;58476;48.072;11.970;2023-05-15T13:13:43;22.17;57.07
67064;SHT30;58476;48.072;11.970;2023-05-15T13:16:19;22.20;57.15
67064;SHT30;58476;48.072;11.970;2023-05-15T13:18:45;22.17;57.22
67064;SHT30;58476;48.072;11.970;2023-05-15T13:21:10;22.18;57.16
67064;SHT30;58476;48.072;11.970;2023-05-15T13:23:35;22.16;57.27
67064;SHT30;58476;48.072;11.970;2023-05-15T13:26:01;22.17;57.55
67064;SHT30;58476;48.072;11.970;2023-05-15T13:28:26;22.20;57.57
67064;SHT30;58476;48.072;11.970;2023-05-15T13:30:51;22.20;57.20
67064;SHT30;58476;48.072;11.970;2023-05-15T13:33:17;22.20;57.25
67064;SHT30;58476;48.072;11.970;2023-05-15T13:35:42;22.20;57.32
67064;SHT30;58476;48.072;11.970;2023-05-15T13:38:08;22.24;57.44
67064;SHT30;58476;48.072;11.970;2023-05-15T13:40:34;22.24;57.43
67064;SHT30;58476;48.072;11.970;2023-05-15T13:42:59;22.34;57.89
67064;SHT30;58476;48.072;11.970;2023-05-15T13:45:25;22.43;57.79
67064;SHT30;58476;48.072;11.970;2023-05-15T13:47:51;22.50;57.81
67064;SHT30;58476;48.072;11.970;2023-05-15T13:50:16;22.57;57.98
67064;SHT30;58476;48.072;11.970;2023-05-15T13:52:43;22.60;57.89
67064;SHT30;58476;48.072;11.970;2023-05-15T13:55:09;22.67;57.72
67064;SHT30;58476;48.072;11.970;2023-05-15T13:57:36;22.69;57.88
67064;SHT30;58476;48.072;11.970;2023-05-15T14:00:01;22.74;57.80
67064;SHT30;58476;48.072;11.970;2023-05-15T14:02:26;22.77;57.62
67064;SHT30;58476;48.072;11.970;2023-05-15T14:04:52;22.87;57.23
67064;SHT30;58476;48.072;11.970;2023-05-15T14:07:18;22.91;57.16
67064;SHT30;58476;48.072;11.970;2023-05-15T14:09:43;22.98;56.95
67064;SHT30;58476;48.072;11.970;2023-05-15T14:12:08;22.99;56.91
67064;SHT30;58476;48.072;11.970;2023-05-15T14:14:34;23.06;57.08
67064;SHT30;58476;48.072;11.970;2023-05-15T14:16:59;23.11;57.06
67064;SHT30;58476;48.072;11.970;2023-05-15T14:19:25;23.14;56.72
67064;SHT30;58476;48.072;11.970;2023-05-15T14:21:50;23.12;56.66
67064;SHT30;58476;48.072;11.970;2023-05-15T14:24:15;23.09;56.70
67064;SHT30;58476;48.072;11.970;2023-05-15T14:26:41;23.12;56.64
67064;SHT30;58476;48.072;11.970;2023-05-15T14:29:06;23.09;56.64
67064;SHT30;58476;48.072;11.970;2023-05-15T14:31:31;23.05;56.72
67064;SHT30;58476;48.072;11.970;2023-05-15T14:33:57;23.05;56.77
67064;SHT30;58476;48.072;11.970;2023-05-15T14:36:22;23.02;56.98
67064;SHT30;58476;48.072;11.970;2023-05-15T14:38:47;23.02;56.92
67064;SHT30;58476;48.072;11.970;2023-05-15T14:41:13;23.01;56.96
67064;SHT30;58476;48.072;11.970;2023-05-15T14:43:39;23.02;56.89
67064;SHT30;58476;48.072;11.970;2023-05-15T14:46:04;23.04;57.12
67064;SHT30;58476;48.072;11.970;2023-05-15T14:48:30;23.02;56.75
67064;SHT30;58476;48.072;11.970;2023-05-15T14:50:56;23.01;56.89
67064;SHT30;58476;48.072;11.970;2023-05-15T14:53:21;22.96;57.04
67064;SHT30;58476;48.072;11.970;2023-05-15T14:55:47;22.92;56.63
67064;SHT30;58476;48.072;11.970;2023-05-15T14:58:12;22.88;56.66
67064;SHT30;58476;48.072;11.970;2023-05-15T15:00:38;22.83;57.34
67064;SHT30;58476;48.072;11.970;2023-05-15T15:03:03;22.79;56.86
67064;SHT30;58476;48.072;11.970;2023-05-15T15:05:28;22.78;58.79
67064;SHT30;58476;48.072;11.970;2023-05-15T15:08:03;22.77;58.89
67064;SHT30;58476;48.072;11.970;2023-05-15T15:10:30;22.75;58.53
67064;SHT30;58476;48.072;11.970;2023-05-15T15:12:56;22.75;58.94
67064;SHT30;58476;48.072;11.970;2023-05-15T15:15:22;22.74;58.84
67064;SHT30;58476;48.072;11.970;2023-05-15T15:17:52;22.74;58.34
67064;SHT30;58476;48.072;11.970;2023-05-15T15:20:18;22.72;58.54
67064;SHT30;58476;48.072;11.970;2023-05-15T15:22:44;22.75;57.74
67064;SHT30;58476;48.072;11.970;2023-05-15T15:25:10;22.78;57.45
67064;SHT30;58476;48.072;11.970;2023-05-15T15:27:36;22.78;57.28
67064;SHT30;58476;48.072;11.970;2023-05-15T15:30:05;22.83;57.07
67064;SHT30;58476;48.072;11.970;2023-05-15T15:32:31;22.88;56.93
67064;SHT30;58476;48.072;11.970;2023-05-15T15:34:57;22.92;56.81
67064;SHT30;58476;48.072;11.970;2023-05-15T15:37:22;22.96;56.85